sensor_id;sensor_type;location;lat;lon;timestamp;P1;durP1;ratioP1;P2;durP2;ratioP2
83552;SDS011;73510;50.866;5.420;2023-11-21T00:00:21;39.60;;;14.80;;
83552;SDS011;73510;50.866;5.420;2023-11-21T00:02:46;37.63;;;15.43;;
83552;SDS011;73510;50.866;5.420;2023-11-21T00:05:12;44.00;;;15.52;;
83552;SDS011;73510;50.866;5.420;2023-11-21T00:07:39;34.47;;;14.65;;
83552;SDS011;73510;50.866;5.420;2023-11-21T00:10:06;46.72;;;16.15;;
83552;SDS011;73510;50.866;5.420;2023-11-21T00:12:36;41.78;;;15.70;;
83552;SDS011;73510;50.866;5.420;2023-11-21T00:15:02;46.42;;;17.40;;
83552;SDS011;73510;50.866;5.420;2023-11-21T00:17:30;47.60;;;17.55;;
83552;SDS011;73510;50.866;5.420;2023-11-21T00:19:56;44.92;;;16.00;;
83552;SDS011;73510;50.866;5.420;2023-11-21T00:22:21;47.28;;;15.27;;
83552;SDS011;73510;50.866;5.420;2023-11-21T00:24:48;44.78;;;16.13;;
83552;SDS011;73510;50.866;5.420;2023-11-21T00:27:13;55.60;;;17.88;;
83552;SDS011;73510;50.866;5.420;2023-11-21T00:29:39;47.13;;;16.52;;
83552;SDS011;73510;50.866;5.420;2023-11-21T00:32:05;54.13;;;17.00;;
83552;SDS011;73510;50.866;5.420;2023-11-21T00:34:32;44.35;;;15.50;;
83552;SDS011;73510;50.866;5.420;2023-11-21T00:36:58;50.03;;;16.38;;
83552;SDS011;73510;50.866;5.420;2023-11-21T00:39:24;60.38;;;18.23;;
83552;SDS011;73510;50.866;5.420;2023-11-21T00:41:51;45.90;;;15.65;;
83552;SDS011;73510;50.866;5.420;2023-11-21T00:44:17;43.03;;;15.88;;
83552;SDS011;73510;50.866;5.420;2023-11-21T00:46:43;39.08;;;15.70;;
83552;SDS011;73510;50.866;5.420;2023-11-21T00:49:09;44.65;;;14.50;;
83552;SDS011;73510;50.866;5.420;2023-11-21T00:51:34;54.97;;;16.80;;
83552;SDS011;73510;50.866;5.420;2023-11-21T00:54:00;46.38;;;16.33;;
83552;SDS011;73510;50.866;5.420;2023-11-21T00:56:26;41.63;;;13.77;;
83552;SDS011;73510;50.866;5.420;2023-11-21T00:58:52;44.50;;;15.07;;
83552;SDS011;73510;50.866;5.420;2023-11-21T01:01:19;41.03;;;15.43;;
83552;SDS011;73510;50.866;5.420;2023-11-21T01:03:45;39.00;;;14.60;;
83552;SDS011;73510;50.866;5.420;2023-11-21T01:06:12;43.50;;;13.88;;
83552;SDS011;73510;50.866;5.420;2023-11-21T01:08:38;36.22;;;14.10;;
83552;SDS011;73510;50.866;5.420;2023-11-21T01:11:03;43.47;;;15.38;;
83552;SDS011;73510;50.866;5.420;2023-11-21T01:13:32;39.00;;;13.65;;
83552;SDS011;73510;50.866;5.420;2023-11-21T01:15:58;37.95;;;13.88;;
83552;SDS011;73510;50.866;5.420;2023-11-21T01:18:24;47.65;;;15.10;;
83552;SDS011;73510;50.866;5.420;2023-11-21T01:20:50;35.63;;;13.35;;
83552;SDS011;73510;50.866;5.420;2023-11-21T01:23:18;41.60;;;13.43;;
83552;SDS011;73510;50.866;5.420;2023-11-21T01:25:44;41.28;;;15.50;;
83552;SDS011;73510;50.866;5.420;2023-11-21T01:28:10;46.80;;;14.95;;
83552;SDS011;73510;50.866;5.420;2023-11-21T01:30:35;42.67;;;13.68;;
83552;SDS011;73510;50.866;5.420;2023-11-21T01:33:01;41.33;;;14.48;;
83552;SDS011;73510;50.866;5.420;2023-11-21T01:35:27;38.78;;;14.07;;
83552;SDS011;73510;50.866;5.420;2023-11-21T01:37:52;38.80;;;13.70;;
83552;SDS011;73510;50.866;5.420;2023-11-21T01:40:18;41.97;;;14.88;;
83552;SDS011;73510;50.866;5.420;2023-11-21T01:42:44;38.00;;;13.50;;
83552;SDS011;73510;50.866;5.420;2023-11-21T01:45:12;41.85;;;14.27;;
83552;SDS011;73510;50.866;5.420;2023-11-21T01:47:38;36.38;;;13.57;;
83552;SDS011;73510;50.866;5.420;2023-11-21T01:50:06;37.97;;;14.45;;
83552;SDS011;73510;50.866;5.420;2023-11-21T01:52:34;45.67;;;13.88;;
83552;SDS011;73510;50.866;5.420;2023-11-21T01:55:00;47.75;;;13.55;;
83552;SDS011;73510;50.866;5.420;2023-11-21T01:57:26;45.00;;;13.50;;
83552;SDS011;73510;50.866;5.420;2023-11-21T01:59:53;46.60;;;13.68;;
83552;SDS011;73510;50.866;5.420;2023-11-21T02:02:19;47.25;;;14.20;;
83552;SDS011;73510;50.866;5.420;2023-11-21T02:04:45;38.13;;;13.43;;
83552;SDS011;73510;50.866;5.420;2023-11-21T02:07:11;42.97;;;14.38;;
83552;SDS011;73510;50.866;5.420;2023-11-21T02:09:36;40.30;;;14.75;;
83552;SDS011;73510;50.866;5.420;2023-11-21T02:12:07;35.80;;;13.20;;
83552;SDS011;73510;50.866;5.420;2023-11-21T02:14:35;46.03;;;14.82;;
83552;SDS011;73510;50.866;5.420;2023-11-21T02:17:01;46.33;;;13.60;;
83552;SDS011;73510;50.866;5.420;2023-11-21T02:19:28;45.00;;;13.68;;
83552;SDS011;73510;50.866;5.420;2023-11-21T02:21:56;40.45;;;13.30;;
83552;SDS011;73510;50.866;5.420;2023-11-21T02:24:31;49.92;;;14.68;;
83552;SDS011;73510;50.866;5.420;2023-11-21T02:26:58;37.80;;;13.60;;
83552;SDS011;73510;50.866;5.420;2023-11-21T02:29:23;38.08;;;12.13;;
83552;SDS011;73510;50.866;5.420;2023-11-21T02:31:53;34.67;;;13.10;;
83552;SDS011;73510;50.866;5.420;2023-11-21T02:34:20;37.50;;;12.35;;
83552;SDS011;73510;50.866;5.420;2023-11-21T02:36:46;43.17;;;13.68;;
83552;SDS011;73510;50.866;5.420;2023-11-21T02:39:14;43.75;;;15.57;;
83552;SDS011;73510;50.866;5.420;2023-11-21T02:41:41;39.85;;;13.65;;
83552;SDS011;73510;50.866;5.420;2023-11-21T02:44:08;41.10;;;13.05;;
83552;SDS011;73510;50.866;5.420;2023-11-21T02:46:35;47.08;;;15.52;;
83552;SDS011;73510;50.866;5.420;2023-11-21T02:49:02;46.95;;;13.77;;
83552;SDS011;73510;50.866;5.420;2023-11-21T02:51:28;44.92;;;14.30;;
83552;SDS011;73510;50.866;5.420;2023-11-21T02:53:54;45.35;;;14.95;;
83552;SDS011;73510;50.866;5.420;2023-11-21T02:56:23;57.97;;;15.43;;
83552;SDS011;73510;50.866;5.420;2023-11-21T02:58:52;48.08;;;15.43;;
83552;SDS011;73510;50.866;5.420;2023-11-21T03:01:20;48.38;;;16.55;;
83552;SDS011;73510;50.866;5.420;2023-11-21T03:03:46;44.63;;;13.82;;
83552;SDS011;73510;50.866;5.420;2023-11-21T03:06:16;42.00;;;14.02;;
83552;SDS011;73510;50.866;5.420;2023-11-21T03:08:42;52.05;;;15.15;;
83552;SDS011;73510;50.866;5.420;2023-11-21T03:11:08;52.97;;;15.50;;
83552;SDS011;73510;50.866;5.420;2023-11-21T03:13:33;54.92;;;15.50;;
83552;SDS011;73510;50.866;5.420;2023-11-21T03:15:59;68.10;;;16.60;;
83552;SDS011;73510;50.866;5.420;2023-11-21T03:18:25;64.38;;;16.52;;
83552;SDS011;73510;50.866;5.420;2023-11-21T03:20:51;59.75;;;17.67;;
83552;SDS011;73510;50.866;5.420;2023-11-21T03:23:18;58.00;;;15.57;;
83552;SDS011;73510;50.866;5.420;2023-11-21T03:25:44;48.50;;;15.48;;
83552;SDS011;73510;50.866;5.420;2023-11-21T03:28:10;52.58;;;15.52;;
83552;SDS011;73510;50.866;5.420;2023-11-21T03:30:36;43.80;;;14.25;;
83552;SDS011;73510;50.866;5.420;2023-11-21T03:33:01;69.53;;;18.27;;
83552;SDS011;73510;50.866;5.420;2023-11-21T03:35:27;77.70;;;16.60;;
83552;SDS011;73510;50.866;5.420;2023-11-21T03:37:53;62.30;;;16.40;;
83552;SDS011;73510;50.866;5.420;2023-11-21T03:40:19;53.38;;;15.20;;
83552;SDS011;73510;50.866;5.420;2023-11-21T03:42:46;72.43;;;18.10;;
83552;SDS011;73510;50.866;5.420;2023-11-21T03:45:13;62.95;;;16.02;;
83552;SDS011;73510;50.866;5.420;2023-11-21T03:47:40;54.53;;;16.85;;
83552;SDS011;73510;50.866;5.420;2023-11-21T03:50:08;70.85;;;19.85;;
83552;SDS011;73510;50.866;5.420;2023-11-21T03:52:34;74.55;;;20.75;;
83552;SDS011;73510;50.866;5.420;2023-11-21T03:55:01;79.13;;;21.35;;
83552;SDS011;73510;50.866;5.420;2023-11-21T03:57:27;88.22;;;22.83;;
83552;SDS011;73510;50.866;5.420;2023-11-21T03:59:53;75.30;;;21.13;;
83552;SDS011;73510;50.866;5.420;2023-11-21T04:02:19;81.57;;;21.88;;
83552;SDS011;73510;50.866;5.420;2023-11-21T04:04:45;76.55;;;21.92;;
83552;SDS011;73510;50.866;5.420;2023-11-21T04:07:11;87.30;;;23.13;;
83552;SDS011;73510;50.866;5.420;2023-11-21T04:09:38;76.95;;;21.75;;
83552;SDS011;73510;50.866;5.420;2023-11-21T04:12:04;83.55;;;22.70;;
83552;SDS011;73510;50.866;5.420;2023-11-21T04:14:30;76.53;;;20.33;;
83552;SDS011;73510;50.866;5.420;2023-11-21T04:16:56;46.88;;;15.40;;
83552;SDS011;73510;50.866;5.420;2023-11-21T04:19:22;77.53;;;21.25;;
83552;SDS011;73510;50.866;5.420;2023-11-21T04:21:48;79.38;;;20.30;;
83552;SDS011;73510;50.866;5.420;2023-11-21T04:24:14;70.45;;;19.52;;
83552;SDS011;73510;50.866;5.420;2023-11-21T04:26:40;85.18;;;20.30;;
83552;SDS011;73510;50.866;5.420;2023-11-21T04:29:06;62.95;;;18.23;;
83552;SDS011;73510;50.866;5.420;2023-11-21T04:31:32;57.63;;;16.27;;
83552;SDS011;73510;50.866;5.420;2023-11-21T04:33:58;59.78;;;17.20;;
83552;SDS011;73510;50.866;5.420;2023-11-21T04:36:23;72.40;;;17.98;;
83552;SDS011;73510;50.866;5.420;2023-11-21T04:38:49;58.00;;;17.77;;
83552;SDS011;73510;50.866;5.420;2023-11-21T04:41:15;61.38;;;18.23;;
83552;SDS011;73510;50.866;5.420;2023-11-21T04:43:41;69.22;;;17.85;;
83552;SDS011;73510;50.866;5.420;2023-11-21T04:46:07;62.10;;;16.40;;
83552;SDS011;73510;50.866;5.420;2023-11-21T04:48:33;59.25;;;17.98;;
83552;SDS011;73510;50.866;5.420;2023-11-21T04:50:59;48.90;;;15.95;;
83552;SDS011;73510;50.866;5.420;2023-11-21T04:53:25;53.40;;;16.05;;
83552;SDS011;73510;50.866;5.420;2023-11-21T04:55:50;66.07;;;17.25;;
83552;SDS011;73510;50.866;5.420;2023-11-21T04:58:16;62.38;;;17.75;;
83552;SDS011;73510;50.866;5.420;2023-11-21T05:00:42;58.72;;;17.50;;
83552;SDS011;73510;50.866;5.420;2023-11-21T05:03:09;57.30;;;16.08;;
83552;SDS011;73510;50.866;5.420;2023-11-21T05:05:35;63.33;;;16.45;;
83552;SDS011;73510;50.866;5.420;2023-11-21T05:08:01;66.05;;;17.70;;
83552;SDS011;73510;50.866;5.420;2023-11-21T05:10:27;60.03;;;16.23;;
83552;SDS011;73510;50.866;5.420;2023-11-21T05:12:54;67.68;;;16.50;;
83552;SDS011;73510;50.866;5.420;2023-11-21T05:15:20;63.80;;;17.23;;
83552;SDS011;73510;50.866;5.420;2023-11-21T05:17:46;79.32;;;17.75;;
83552;SDS011;73510;50.866;5.420;2023-11-21T05:20:15;70.25;;;17.23;;
83552;SDS011;73510;50.866;5.420;2023-11-21T05:22:49;67.30;;;16.65;;
83552;SDS011;73510;50.866;5.420;2023-11-21T05:25:15;59.00;;;16.20;;
83552;SDS011;73510;50.866;5.420;2023-11-21T05:27:43;92.18;;;20.15;;
83552;SDS011;73510;50.866;5.420;2023-11-21T05:30:10;101.40;;;20.50;;
83552;SDS011;73510;50.866;5.420;2023-11-21T05:32:37;79.63;;;18.25;;
83552;SDS011;73510;50.866;5.420;2023-11-21T05:35:03;84.60;;;19.00;;
83552;SDS011;73510;50.866;5.420;2023-11-21T05:37:34;76.53;;;18.08;;
83552;SDS011;73510;50.866;5.420;2023-11-21T05:40:01;89.05;;;17.52;;
83552;SDS011;73510;50.866;5.420;2023-11-21T05:42:31;88.50;;;18.23;;
83552;SDS011;73510;50.866;5.420;2023-11-21T05:44:58;79.20;;;19.10;;
83552;SDS011;73510;50.866;5.420;2023-11-21T05:47:43;90.45;;;19.45;;
83552;SDS011;73510;50.866;5.420;2023-11-21T05:50:11;93.60;;;19.85;;
83552;SDS011;73510;50.866;5.420;2023-11-21T05:52:40;142.63;;;21.17;;
83552;SDS011;73510;50.866;5.420;2023-11-21T05:55:07;151.80;;;24.27;;
83552;SDS011;73510;50.866;5.420;2023-11-21T05:57:36;102.07;;;19.85;;
83552;SDS011;73510;50.866;5.420;2023-11-21T06:00:04;121.90;;;20.60;;
83552;SDS011;73510;50.866;5.420;2023-11-21T06:02:41;137.00;;;23.27;;
83552;SDS011;73510;50.866;5.420;2023-11-21T06:05:07;157.63;;;23.90;;
83552;SDS011;73510;50.866;5.420;2023-11-21T06:07:33;200.63;;;30.08;;
83552;SDS011;73510;50.866;5.420;2023-11-21T06:10:00;99.07;;;19.98;;
83552;SDS011;73510;50.866;5.420;2023-11-21T06:12:27;184.80;;;25.48;;
83552;SDS011;73510;50.866;5.420;2023-11-21T06:14:54;174.68;;;24.35;;
83552;SDS011;73510;50.866;5.420;2023-11-21T06:17:20;177.73;;;29.85;;
83552;SDS011;73510;50.866;5.420;2023-11-21T06:19:46;88.63;;;20.05;;
83552;SDS011;73510;50.866;5.420;2023-11-21T06:22:12;143.93;;;21.75;;
83552;SDS011;73510;50.866;5.420;2023-11-21T06:24:38;90.00;;;19.67;;
83552;SDS011;73510;50.866;5.420;2023-11-21T06:27:06;117.93;;;21.73;;
83552;SDS011;73510;50.866;5.420;2023-11-21T06:29:31;114.88;;;21.25;;
83552;SDS011;73510;50.866;5.420;2023-11-21T06:31:57;87.25;;;20.65;;
83552;SDS011;73510;50.866;5.420;2023-11-21T06:34:23;130.88;;;22.88;;
83552;SDS011;73510;50.866;5.420;2023-11-21T06:36:49;120.97;;;22.02;;
83552;SDS011;73510;50.866;5.420;2023-11-21T06:39:14;106.95;;;22.52;;
83552;SDS011;73510;50.866;5.420;2023-11-21T06:41:42;131.75;;;23.40;;
83552;SDS011;73510;50.866;5.420;2023-11-21T06:44:08;97.80;;;19.95;;
83552;SDS011;73510;50.866;5.420;2023-11-21T06:46:34;112.97;;;23.10;;
83552;SDS011;73510;50.866;5.420;2023-11-21T06:48:59;114.82;;;23.45;;
83552;SDS011;73510;50.866;5.420;2023-11-21T06:51:25;105.68;;;22.27;;
83552;SDS011;73510;50.866;5.420;2023-11-21T06:53:51;74.85;;;19.00;;
83552;SDS011;73510;50.866;5.420;2023-11-21T06:56:17;110.00;;;21.25;;
83552;SDS011;73510;50.866;5.420;2023-11-21T06:58:46;107.07;;;21.95;;
83552;SDS011;73510;50.866;5.420;2023-11-21T07:01:12;91.72;;;22.10;;
83552;SDS011;73510;50.866;5.420;2023-11-21T07:03:38;129.23;;;23.55;;
83552;SDS011;73510;50.866;5.420;2023-11-21T07:06:06;104.28;;;22.00;;
83552;SDS011;73510;50.866;5.420;2023-11-21T07:08:32;77.20;;;19.02;;
83552;SDS011;73510;50.866;5.420;2023-11-21T07:10:58;155.90;;;25.42;;
83552;SDS011;73510;50.866;5.420;2023-11-21T07:13:24;115.22;;;22.55;;
83552;SDS011;73510;50.866;5.420;2023-11-21T07:15:51;107.10;;;23.45;;
83552;SDS011;73510;50.866;5.420;2023-11-21T07:18:17;94.18;;;21.13;;
83552;SDS011;73510;50.866;5.420;2023-11-21T07:20:43;94.35;;;21.20;;
83552;SDS011;73510;50.866;5.420;2023-11-21T07:23:08;85.57;;;20.70;;
83552;SDS011;73510;50.866;5.420;2023-11-21T07:25:35;97.22;;;21.55;;
83552;SDS011;73510;50.866;5.420;2023-11-21T07:28:01;77.43;;;18.60;;
83552;SDS011;73510;50.866;5.420;2023-11-21T07:30:26;105.43;;;21.60;;
83552;SDS011;73510;50.866;5.420;2023-11-21T07:32:52;96.22;;;21.67;;
83552;SDS011;73510;50.866;5.420;2023-11-21T07:35:18;80.85;;;21.02;;
83552;SDS011;73510;50.866;5.420;2023-11-21T07:37:44;95.38;;;22.48;;
83552;SDS011;73510;50.866;5.420;2023-11-21T07:40:10;84.65;;;21.52;;
83552;SDS011;73510;50.866;5.420;2023-11-21T07:42:36;97.93;;;22.08;;
83552;SDS011;73510;50.866;5.420;2023-11-21T07:45:04;94.18;;;22.15;;
83552;SDS011;73510;50.866;5.420;2023-11-21T07:47:31;93.75;;;22.42;;
83552;SDS011;73510;50.866;5.420;2023-11-21T07:49:59;105.80;;;23.35;;
83552;SDS011;73510;50.866;5.420;2023-11-21T07:52:28;72.75;;;19.50;;
83552;SDS011;73510;50.866;5.420;2023-11-21T07:54:53;87.30;;;20.73;;
83552;SDS011;73510;50.866;5.420;2023-11-21T07:57:19;79.90;;;21.08;;
83552;SDS011;73510;50.866;5.420;2023-11-21T08:36:08;89.95;;;21.17;;
83552;SDS011;73510;50.866;5.420;2023-11-21T08:41:01;81.15;;;19.75;;
83552;SDS011;73510;50.866;5.420;2023-11-21T08:43:26;69.53;;;19.05;;
83552;SDS011;73510;50.866;5.420;2023-11-21T08:45:52;67.15;;;18.70;;
83552;SDS011;73510;50.866;5.420;2023-11-21T08:48:18;63.08;;;18.98;;
83552;SDS011;73510;50.866;5.420;2023-11-21T08:50:43;67.57;;;19.63;;
83552;SDS011;73510;50.866;5.420;2023-11-21T08:53:09;71.95;;;19.33;;
83552;SDS011;73510;50.866;5.420;2023-11-21T08:55:36;74.05;;;20.10;;
83552;SDS011;73510;50.866;5.420;2023-11-21T08:58:02;75.00;;;18.85;;
83552;SDS011;73510;50.866;5.420;2023-11-21T09:00:30;70.18;;;17.05;;
83552;SDS011;73510;50.866;5.420;2023-11-21T09:02:56;65.40;;;18.38;;
83552;SDS011;73510;50.866;5.420;2023-11-21T09:05:22;61.67;;;19.88;;
83552;SDS011;73510;50.866;5.420;2023-11-21T09:07:48;66.50;;;18.70;;
83552;SDS011;73510;50.866;5.420;2023-11-21T09:10:14;54.33;;;16.70;;
83552;SDS011;73510;50.866;5.420;2023-11-21T09:12:40;47.45;;;16.48;;
83552;SDS011;73510;50.866;5.420;2023-11-21T09:15:08;58.22;;;17.40;;
83552;SDS011;73510;50.866;5.420;2023-11-21T09:17:36;53.85;;;19.42;;
83552;SDS011;73510;50.866;5.420;2023-11-21T09:20:02;49.28;;;16.95;;
83552;SDS011;73510;50.866;5.420;2023-11-21T09:22:33;52.45;;;15.88;;
83552;SDS011;73510;50.866;5.420;2023-11-21T09:24:58;44.20;;;15.55;;
83552;SDS011;73510;50.866;5.420;2023-11-21T09:27:24;44.13;;;17.30;;
83552;SDS011;73510;50.866;5.420;2023-11-21T09:29:52;49.35;;;16.70;;
83552;SDS011;73510;50.866;5.420;2023-11-21T09:32:18;47.45;;;16.40;;
83552;SDS011;73510;50.866;5.420;2023-11-21T09:34:46;44.55;;;16.95;;
83552;SDS011;73510;50.866;5.420;2023-11-21T09:37:13;64.10;;;25.10;;
83552;SDS011;73510;50.866;5.420;2023-11-21T09:39:39;63.63;;;26.85;;
83552;SDS011;73510;50.866;5.420;2023-11-21T09:42:13;49.55;;;18.90;;
83552;SDS011;73510;50.866;5.420;2023-11-21T09:45:03;43.78;;;17.02;;
83552;SDS011;73510;50.866;5.420;2023-11-21T09:47:56;40.92;;;14.40;;
83552;SDS011;73510;50.866;5.420;2023-11-21T09:50:23;50.22;;;17.50;;
83552;SDS011;73510;50.866;5.420;2023-11-21T09:52:58;44.30;;;15.50;;
83552;SDS011;73510;50.866;5.420;2023-11-21T10:05:31;37.92;;;13.82;;
83552;SDS011;73510;50.866;5.420;2023-11-21T10:07:59;37.58;;;14.25;;
83552;SDS011;73510;50.866;5.420;2023-11-21T10:10:25;40.03;;;13.80;;
83552;SDS011;73510;50.866;5.420;2023-11-21T10:12:55;35.00;;;13.25;;
83552;SDS011;73510;50.866;5.420;2023-11-21T10:15:22;39.88;;;14.65;;
83552;SDS011;73510;50.866;5.420;2023-11-21T10:22:41;37.20;;;13.68;;
83552;SDS011;73510;50.866;5.420;2023-11-21T10:25:08;33.47;;;13.05;;
83552;SDS011;73510;50.866;5.420;2023-11-21T10:27:34;37.20;;;13.55;;
83552;SDS011;73510;50.866;5.420;2023-11-21T10:30:01;31.95;;;13.55;;
83552;SDS011;73510;50.866;5.420;2023-11-21T10:32:29;31.55;;;11.43;;
83552;SDS011;73510;50.866;5.420;2023-11-21T10:34:58;26.65;;;11.90;;
83552;SDS011;73510;50.866;5.420;2023-11-21T10:37:34;31.38;;;12.35;;
83552;SDS011;73510;50.866;5.420;2023-11-21T10:40:01;39.38;;;13.20;;
83552;SDS011;73510;50.866;5.420;2023-11-21T10:42:26;30.45;;;11.27;;
83552;SDS011;73510;50.866;5.420;2023-11-21T10:44:54;33.45;;;12.00;;
83552;SDS011;73510;50.866;5.420;2023-11-21T10:47:23;29.65;;;12.77;;
83552;SDS011;73510;50.866;5.420;2023-11-21T10:49:49;36.30;;;12.13;;
83552;SDS011;73510;50.866;5.420;2023-11-21T10:52:15;31.20;;;12.60;;
83552;SDS011;73510;50.866;5.420;2023-11-21T10:54:43;30.77;;;12.10;;
83552;SDS011;73510;50.866;5.420;2023-11-21T10:57:09;33.70;;;12.25;;
83552;SDS011;73510;50.866;5.420;2023-11-21T10:59:36;28.83;;;13.07;;
83552;SDS011;73510;50.866;5.420;2023-11-21T11:02:07;28.92;;;11.95;;
83552;SDS011;73510;50.866;5.420;2023-11-21T11:04:59;31.48;;;11.68;;
83552;SDS011;73510;50.866;5.420;2023-11-21T11:07:26;31.35;;;12.05;;
83552;SDS011;73510;50.866;5.420;2023-11-21T11:09:53;29.85;;;12.98;;
83552;SDS011;73510;50.866;5.420;2023-11-21T11:12:20;22.95;;;10.88;;
83552;SDS011;73510;50.866;5.420;2023-11-21T11:14:46;25.17;;;10.95;;
83552;SDS011;73510;50.866;5.420;2023-11-21T11:17:13;30.30;;;12.63;;
83552;SDS011;73510;50.866;5.420;2023-11-21T11:19:39;27.15;;;12.25;;
83552;SDS011;73510;50.866;5.420;2023-11-21T11:27:24;27.25;;;11.07;;
83552;SDS011;73510;50.866;5.420;2023-11-21T11:32:40;29.25;;;11.48;;
83552;SDS011;73510;50.866;5.420;2023-11-21T11:37:58;21.02;;;10.63;;
83552;SDS011;73510;50.866;5.420;2023-11-21T11:40:25;26.77;;;10.85;;
83552;SDS011;73510;50.866;5.420;2023-11-21T11:43:09;24.15;;;10.65;;
83552;SDS011;73510;50.866;5.420;2023-11-21T11:45:35;21.40;;;10.00;;
83552;SDS011;73510;50.866;5.420;2023-11-21T11:48:06;22.33;;;10.68;;
83552;SDS011;73510;50.866;5.420;2023-11-21T11:50:32;27.67;;;11.50;;
83552;SDS011;73510;50.866;5.420;2023-11-21T11:53:11;25.73;;;10.38;;
83552;SDS011;73510;50.866;5.420;2023-11-21T11:55:38;26.90;;;10.40;;
83552;SDS011;73510;50.866;5.420;2023-11-21T11:58:05;28.00;;;10.48;;
83552;SDS011;73510;50.866;5.420;2023-11-21T12:02:58;29.48;;;10.70;;
83552;SDS011;73510;50.866;5.420;2023-11-21T12:05:28;27.55;;;11.30;;
83552;SDS011;73510;50.866;5.420;2023-11-21T12:07:59;24.60;;;9.00;;
83552;SDS011;73510;50.866;5.420;2023-11-21T12:10:30;24.10;;;9.73;;
83552;SDS011;73510;50.866;5.420;2023-11-21T12:12:57;23.25;;;9.23;;
83552;SDS011;73510;50.866;5.420;2023-11-21T12:15:25;25.70;;;9.52;;
83552;SDS011;73510;50.866;5.420;2023-11-21T12:17:52;25.48;;;9.40;;
83552;SDS011;73510;50.866;5.420;2023-11-21T12:20:18;19.48;;;8.90;;
83552;SDS011;73510;50.866;5.420;2023-11-21T12:22:48;23.23;;;8.85;;
83552;SDS011;73510;50.866;5.420;2023-11-21T12:25:19;16.27;;;7.25;;
83552;SDS011;73510;50.866;5.420;2023-11-21T12:27:50;17.90;;;8.38;;
83552;SDS011;73510;50.866;5.420;2023-11-21T12:30:17;20.52;;;9.23;;
83552;SDS011;73510;50.866;5.420;2023-11-21T12:32:45;18.73;;;9.25;;
83552;SDS011;73510;50.866;5.420;2023-11-21T12:35:14;23.95;;;9.93;;
83552;SDS011;73510;50.866;5.420;2023-11-21T12:37:41;25.65;;;9.88;;
83552;SDS011;73510;50.866;5.420;2023-11-21T12:40:10;25.45;;;11.00;;
83552;SDS011;73510;50.866;5.420;2023-11-21T12:42:39;29.05;;;12.23;;
83552;SDS011;73510;50.866;5.420;2023-11-21T12:50:26;24.85;;;11.10;;
83552;SDS011;73510;50.866;5.420;2023-11-21T12:52:54;35.65;;;13.48;;
83552;SDS011;73510;50.866;5.420;2023-11-21T12:55:23;25.05;;;11.60;;
83552;SDS011;73510;50.866;5.420;2023-11-21T12:57:51;27.88;;;12.10;;
83552;SDS011;73510;50.866;5.420;2023-11-21T13:00:20;32.70;;;12.27;;
83552;SDS011;73510;50.866;5.420;2023-11-21T13:02:54;31.67;;;12.45;;
83552;SDS011;73510;50.866;5.420;2023-11-21T13:05:33;32.83;;;12.23;;
83552;SDS011;73510;50.866;5.420;2023-11-21T13:08:03;31.65;;;12.63;;
83552;SDS011;73510;50.866;5.420;2023-11-21T13:10:32;28.83;;;12.85;;
83552;SDS011;73510;50.866;5.420;2023-11-21T13:13:02;37.42;;;12.90;;
83552;SDS011;73510;50.866;5.420;2023-11-21T13:15:39;27.77;;;12.35;;
83552;SDS011;73510;50.866;5.420;2023-11-21T13:18:08;28.13;;;12.63;;
83552;SDS011;73510;50.866;5.420;2023-11-21T13:20:36;31.08;;;12.63;;
83552;SDS011;73510;50.866;5.420;2023-11-21T13:23:06;31.17;;;13.70;;
83552;SDS011;73510;50.866;5.420;2023-11-21T13:25:33;27.40;;;11.18;;
83552;SDS011;73510;50.866;5.420;2023-11-21T13:27:59;24.30;;;10.73;;
83552;SDS011;73510;50.866;5.420;2023-11-21T13:30:25;28.27;;;11.40;;
83552;SDS011;73510;50.866;5.420;2023-11-21T13:32:55;25.08;;;11.27;;
83552;SDS011;73510;50.866;5.420;2023-11-21T13:35:27;24.42;;;10.00;;
83552;SDS011;73510;50.866;5.420;2023-11-21T13:38:05;22.42;;;10.00;;
83552;SDS011;73510;50.866;5.420;2023-11-21T13:40:38;22.80;;;10.88;;
83552;SDS011;73510;50.866;5.420;2023-11-21T13:43:09;19.55;;;9.95;;
83552;SDS011;73510;50.866;5.420;2023-11-21T13:45:36;22.60;;;10.43;;
83552;SDS011;73510;50.866;5.420;2023-11-21T13:48:04;25.10;;;10.88;;
83552;SDS011;73510;50.866;5.420;2023-11-21T13:50:35;22.30;;;9.75;;
83552;SDS011;73510;50.866;5.420;2023-11-21T13:53:14;22.83;;;11.48;;
83552;SDS011;73510;50.866;5.420;2023-11-21T13:55:52;21.60;;;11.18;;
83552;SDS011;73510;50.866;5.420;2023-11-21T13:58:24;22.85;;;10.43;;
83552;SDS011;73510;50.866;5.420;2023-11-21T14:01:20;20.95;;;10.05;;
83552;SDS011;73510;50.866;5.420;2023-11-21T14:03:55;25.48;;;11.57;;
83552;SDS011;73510;50.866;5.420;2023-11-21T14:06:34;25.55;;;11.65;;
83552;SDS011;73510;50.866;5.420;2023-11-21T14:09:07;25.30;;;10.45;;
83552;SDS011;73510;50.866;5.420;2023-11-21T14:11:33;22.65;;;11.60;;
83552;SDS011;73510;50.866;5.420;2023-11-21T14:13:59;25.85;;;10.82;;
83552;SDS011;73510;50.866;5.420;2023-11-21T14:16:25;21.25;;;10.40;;
83552;SDS011;73510;50.866;5.420;2023-11-21T14:18:51;25.92;;;12.00;;
83552;SDS011;73510;50.866;5.420;2023-11-21T14:21:29;24.77;;;12.13;;
83552;SDS011;73510;50.866;5.420;2023-11-21T14:23:55;25.45;;;11.63;;
83552;SDS011;73510;50.866;5.420;2023-11-21T14:26:21;19.85;;;9.90;;
83552;SDS011;73510;50.866;5.420;2023-11-21T14:28:48;20.23;;;9.43;;
83552;SDS011;73510;50.866;5.420;2023-11-21T14:31:14;20.98;;;10.02;;
83552;SDS011;73510;50.866;5.420;2023-11-21T14:33:42;14.88;;;7.38;;
83552;SDS011;73510;50.866;5.420;2023-11-21T14:36:10;15.60;;;8.63;;
83552;SDS011;73510;50.866;5.420;2023-11-21T14:38:36;17.25;;;8.40;;
83552;SDS011;73510;50.866;5.420;2023-11-21T14:41:04;17.92;;;10.02;;
83552;SDS011;73510;50.866;5.420;2023-11-21T14:43:33;11.45;;;6.60;;
83552;SDS011;73510;50.866;5.420;2023-11-21T14:46:00;19.90;;;8.80;;
83552;SDS011;73510;50.866;5.420;2023-11-21T14:48:28;17.92;;;7.78;;
83552;SDS011;73510;50.866;5.420;2023-11-21T14:51:07;18.75;;;8.88;;
83552;SDS011;73510;50.866;5.420;2023-11-21T14:53:52;16.65;;;8.38;;
83552;SDS011;73510;50.866;5.420;2023-11-21T14:56:22;16.92;;;8.85;;
83552;SDS011;73510;50.866;5.420;2023-11-21T14:58:58;17.75;;;8.23;;
83552;SDS011;73510;50.866;5.420;2023-11-21T15:01:30;18.60;;;8.52;;
83552;SDS011;73510;50.866;5.420;2023-11-21T15:04:22;8.50;;;5.00;;
83552;SDS011;73510;50.866;5.420;2023-11-21T15:07:03;12.05;;;6.78;;
83552;SDS011;73510;50.866;5.420;2023-11-21T15:11:58;15.48;;;7.68;;
83552;SDS011;73510;50.866;5.420;2023-11-21T15:14:35;15.32;;;7.70;;
83552;SDS011;73510;50.866;5.420;2023-11-21T15:17:01;15.73;;;8.02;;
83552;SDS011;73510;50.866;5.420;2023-11-21T15:19:28;15.57;;;7.88;;
83552;SDS011;73510;50.866;5.420;2023-11-21T15:21:56;13.98;;;7.60;;
83552;SDS011;73510;50.866;5.420;2023-11-21T15:24:23;14.88;;;8.25;;
83552;SDS011;73510;50.866;5.420;2023-11-21T15:26:50;7.25;;;3.17;;
83552;SDS011;73510;50.866;5.420;2023-11-21T15:29:16;13.52;;;7.22;;
83552;SDS011;73510;50.866;5.420;2023-11-21T15:31:41;12.18;;;6.63;;
83552;SDS011;73510;50.866;5.420;2023-11-21T15:34:12;15.02;;;6.30;;
83552;SDS011;73510;50.866;5.420;2023-11-21T15:36:38;13.73;;;7.72;;
83552;SDS011;73510;50.866;5.420;2023-11-21T15:39:04;14.05;;;6.95;;